< < Back
Terminal Aerodrome Forecast


Current Version              Previous Versions:   1  2  3  4  5  6  7  8  9  

Terminal Aerodrome Forecast

026
FTUS42 KTAE 241100
TAFDHN
TAF
KDHN 241121Z 2412/2512 29014G19KT P6SM OVC009
     FM241400 31015G20KT P6SM BKN025 OVC030
     FM241500 30013G19KT P6SM SKC
     FM242300 29005KT P6SM SKC=

Latest METAR

938
SAUS70 KWBC 250300 RRE
MTRDHN
METAR KDHN 250253Z AUTO 30006KT 10SM CLR 06/00 A3006 RMK AO2 SLP180
T00560000 50006


USA.gov is the U.S. government's official web portal to all federal, state and local government web resources and services.